Time;durP1;ratioP1;P1;durP2;ratioP2;P2;SDS_P1;SDS_P2;PMS_P1;PMS_P2;Temp;Humidity;BMP_temperature;BMP_pressure;BME280_temperature;BME280_humidity;BME280_pressure;Samples;Min_cycle;Max_cycle;Signal;HPM_P1;HPM_P2
2021/05/09 00:01:46;;;;;;;8.83;4.57;;;13.30;99.90;;;;;;5044797;28;20225;-80
2021/05/09 00:04:12;;;;;;;8.13;4.97;;;13.20;99.90;;;;;;5045863;28;20888;-79
2021/05/09 00:06:39;;;;;;;8.67;5.77;;;13.20;99.90;;;;;;5045517;28;20244;-85
2021/05/09 00:09:06;;;;;;;12.27;6.07;;;13.00;99.90;;;;;;5045127;28;20507;-79
2021/05/09 00:11:33;;;;;;;10.67;6.10;;;13.00;99.90;;;;;;5045376;28;20665;-79
2021/05/09 00:14:00;;;;;;;9.00;6.00;;;12.90;99.90;;;;;;5044484;28;20213;-80
2021/05/09 00:16:26;;;;;;;10.47;7.40;;;12.80;99.90;;;;;;5045590;28;20202;-78
2021/05/09 00:18:52;;;;;;;12.30;7.67;;;12.70;99.90;;;;;;5061408;28;20237;-78
2021/05/09 00:21:19;;;;;;;10.53;7.83;;;12.70;99.90;;;;;;5064710;28;20247;-79
2021/05/09 00:23:45;;;;;;;12.40;8.97;;;12.70;99.90;;;;;;5065469;28;20225;-78
2021/05/09 00:26:11;;;;;;;11.93;8.60;;;12.60;99.90;;;;;;5065426;28;20209;-79
2021/05/09 00:28:38;;;;;;;13.53;10.37;;;12.60;99.90;;;;;;5064997;28;20205;-80
2021/05/09 00:31:05;;;;;;;13.87;10.13;;;12.60;99.90;;;;;;5072553;28;20201;-79
2021/05/09 00:33:31;;;;;;;13.87;9.97;;;12.50;99.90;;;;;;5085925;28;20344;-79
2021/05/09 00:35:57;;;;;;;15.40;9.97;;;12.50;99.90;;;;;;5080466;28;20197;-79
2021/05/09 00:38:24;;;;;;;16.23;11.77;;;12.50;99.90;;;;;;5065541;28;20805;-78
2021/05/09 00:40:50;;;;;;;15.60;11.70;;;12.40;99.90;;;;;;5065990;28;20205;-80
2021/05/09 00:43:16;;;;;;;13.17;11.30;;;12.40;99.90;;;;;;5066026;28;20258;-81
2021/05/09 00:45:44;;;;;;;13.67;11.03;;;12.30;99.90;;;;;;5066017;28;20208;-81
2021/05/09 00:48:11;;;;;;;12.97;10.97;;;12.30;99.90;;;;;;5065011;28;20205;-80
2021/05/09 00:50:38;;;;;;;14.30;11.40;;;12.40;99.90;;;;;;5064681;28;20210;-79
2021/05/09 00:53:06;;;;;;;15.10;11.27;;;12.40;99.90;;;;;;5064928;28;20259;-79
2021/05/09 00:55:35;;;;;;;15.37;11.63;;;12.40;99.90;;;;;;5065135;28;20200;-79
2021/05/09 00:58:02;;;;;;;15.27;11.60;;;12.40;99.90;;;;;;5064726;28;20201;-80
2021/05/09 01:00:30;;;;;;;13.10;10.83;;;12.30;99.90;;;;;;5065395;28;20201;-80
2021/05/09 01:02:57;;;;;;;17.30;12.10;;;12.30;99.90;;;;;;5064699;28;20217;-80
2021/05/09 01:05:24;;;;;;;16.23;12.03;;;12.40;99.90;;;;;;5064960;28;20853;-80
2021/05/09 01:07:50;;;;;;;15.43;12.70;;;12.30;99.90;;;;;;5064405;28;20209;-80
2021/05/09 01:10:16;;;;;;;15.10;11.60;;;12.30;99.90;;;;;;5064919;28;20204;-79
2021/05/09 01:12:43;;;;;;;16.90;12.40;;;12.30;99.90;;;;;;5065001;28;20200;-80
2021/05/09 01:15:11;;;;;;;15.63;12.13;;;12.20;99.90;;;;;;5064725;28;20206;-81
2021/05/09 01:17:37;;;;;;;16.80;12.40;;;12.20;99.90;;;;;;5063880;28;20229;-81
2021/05/09 01:20:28;;;;;;;17.87;12.97;;;12.20;99.90;;;;;;5064523;28;20209;-78
2021/05/09 01:22:55;;;;;;;14.93;12.27;;;12.20;99.90;;;;;;5064425;28;20221;-78
2021/05/09 01:25:21;;;;;;;17.87;13.80;;;12.20;99.90;;;;;;5064236;28;20625;-78
2021/05/09 01:27:48;;;;;;;19.83;14.90;;;12.20;99.90;;;;;;5064761;28;20205;-78
2021/05/09 01:30:15;;;;;;;16.73;13.33;;;12.10;99.90;;;;;;5065164;28;20801;-80
2021/05/09 01:32:41;;;;;;;17.07;13.27;;;12.10;99.90;;;;;;5064338;28;20621;-80
2021/05/09 01:35:10;;;;;;;19.63;13.80;;;12.00;99.90;;;;;;5064731;28;20284;-79
2021/05/09 01:37:36;;;;;;;17.53;13.83;;;12.00;99.90;;;;;;5064608;28;20640;-78
2021/05/09 01:40:04;;;;;;;14.73;12.60;;;12.10;99.90;;;;;;5064033;28;20261;-79
2021/05/09 01:42:30;;;;;;;18.43;13.67;;;12.00;99.90;;;;;;5064207;28;20860;-79
2021/05/09 01:44:58;;;;;;;18.80;12.07;;;12.00;99.90;;;;;;5064012;28;20206;-79
2021/05/09 01:47:25;;;;;;;15.33;13.07;;;12.00;99.90;;;;;;5063415;28;20523;-79
2021/05/09 01:49:51;;;;;;;15.93;13.00;;;12.00;99.90;;;;;;5064099;28;20201;-80
2021/05/09 01:52:19;;;;;;;14.80;12.07;;;12.00;99.90;;;;;;5065108;28;20212;-80
2021/05/09 01:54:46;;;;;;;16.00;12.10;;;11.90;99.90;;;;;;5064487;28;20285;-79
2021/05/09 01:57:13;;;;;;;15.63;12.13;;;11.90;99.90;;;;;;5064641;28;20212;-80
2021/05/09 01:59:39;;;;;;;15.57;11.87;;;11.90;99.90;;;;;;5063741;28;20212;-80
2021/05/09 02:02:05;;;;;;;18.50;12.67;;;11.90;99.90;;;;;;5064572;28;20217;-80
2021/05/09 02:04:32;;;;;;;16.77;12.87;;;11.90;99.90;;;;;;5064441;28;20232;-79
2021/05/09 02:06:58;;;;;;;17.00;11.97;;;11.90;99.90;;;;;;5063851;28;20240;-79
2021/05/09 02:09:25;;;;;;;16.93;11.90;;;11.90;99.90;;;;;;5063715;28;20209;-79
2021/05/09 02:11:52;;;;;;;15.57;11.83;;;11.90;99.90;;;;;;5063572;28;20209;-79
2021/05/09 02:14:18;;;;;;;13.40;11.50;;;11.80;99.90;;;;;;5064195;28;20193;-80
2021/05/09 02:16:44;;;;;;;13.90;10.93;;;11.80;99.90;;;;;;5063495;28;20208;-79
2021/05/09 02:19:10;;;;;;;15.40;11.00;;;11.80;99.90;;;;;;5062908;28;20252;-80
2021/05/09 02:21:37;;;;;;;17.37;11.13;;;11.80;99.90;;;;;;5063394;28;20841;-80
2021/05/09 02:24:04;;;;;;;14.97;12.03;;;11.90;99.90;;;;;;5063608;28;20233;-80
2021/05/09 02:26:31;;;;;;;16.07;11.03;;;11.90;99.90;;;;;;5064053;28;20205;-80
2021/05/09 02:28:57;;;;;;;18.87;13.40;;;11.90;99.90;;;;;;5063201;28;20209;-79
2021/05/09 02:31:24;;;;;;;16.70;12.13;;;11.90;99.90;;;;;;5063560;28;20209;-79
2021/05/09 02:33:50;;;;;;;16.30;10.53;;;11.90;99.90;;;;;;5064325;28;20193;-79
2021/05/09 02:36:16;;;;;;;15.93;10.47;;;11.90;99.90;;;;;;5063568;28;20189;-79
2021/05/09 02:38:42;;;;;;;17.13;10.97;;;11.90;99.90;;;;;;5075716;28;20233;-79
2021/05/09 02:41:09;;;;;;;17.63;10.10;;;11.90;99.90;;;;;;5083650;28;20215;-82
2021/05/09 02:43:36;;;;;;;13.57;10.33;;;11.80;99.90;;;;;;5082201;28;20232;-79
2021/05/09 02:46:02;;;;;;;15.53;10.53;;;11.80;99.90;;;;;;5083804;28;20201;-80
2021/05/09 02:48:30;;;;;;;14.27;10.70;;;11.80;99.90;;;;;;5072958;28;20220;-79
2021/05/09 02:50:56;;;;;;;18.17;10.43;;;11.80;99.90;;;;;;5063226;28;20197;-79
2021/05/09 02:53:23;;;;;;;12.83;9.13;;;11.80;99.90;;;;;;5076876;28;20850;-79
2021/05/09 02:55:49;;;;;;;11.60;9.03;;;11.80;99.90;;;;;;5081826;28;20201;-82
2021/05/09 02:58:16;;;;;;;11.53;9.60;;;11.80;99.90;;;;;;5083497;28;20200;-80
2021/05/09 03:00:44;;;;;;;14.10;8.97;;;11.80;99.90;;;;;;5082701;28;20204;-80
2021/05/09 03:03:10;;;;;;;13.40;9.23;;;11.70;99.90;;;;;;5082775;28;20224;-79
2021/05/09 03:05:37;;;;;;;18.00;9.60;;;11.60;99.90;;;;;;5074565;28;20205;-79
2021/05/09 03:08:04;;;;;;;13.97;9.97;;;11.60;99.90;;;;;;5063208;28;20201;-80
2021/05/09 03:10:30;;;;;;;13.80;9.57;;;11.60;99.90;;;;;;5063057;28;20201;-79
2021/05/09 03:12:57;;;;;;;16.13;10.30;;;11.70;99.90;;;;;;5068872;28;20207;-78
2021/05/09 03:15:23;;;;;;;13.47;9.73;;;11.60;99.90;;;;;;5082929;28;20204;-79
2021/05/09 03:17:50;;;;;;;15.77;10.40;;;11.70;99.90;;;;;;5082402;28;20241;-79
2021/05/09 03:20:17;;;;;;;15.60;9.90;;;11.70;99.90;;;;;;5065947;28;20347;-80
2021/05/09 03:22:43;;;;;;;13.23;9.37;;;11.60;99.90;;;;;;5061412;28;20229;-80
2021/05/09 03:25:10;;;;;;;16.23;10.97;;;11.60;99.90;;;;;;5060968;28;20210;-80
2021/05/09 03:27:36;;;;;;;13.67;9.23;;;11.60;99.90;;;;;;5062505;28;20245;-80
2021/05/09 03:30:03;;;;;;;11.83;9.00;;;11.60;99.90;;;;;;5064211;28;20227;-79
2021/05/09 03:32:30;;;;;;;15.67;9.37;;;11.60;99.90;;;;;;5066324;28;20209;-80
2021/05/09 03:34:57;;;;;;;12.40;9.63;;;11.60;99.90;;;;;;5066117;28;20204;-80
2021/05/09 03:37:23;;;;;;;11.80;8.43;;;11.60;99.90;;;;;;5085098;28;20227;-80
2021/05/09 03:39:50;;;;;;;13.43;8.40;;;11.60;99.90;;;;;;5085688;28;20331;-79
2021/05/09 03:42:16;;;;;;;13.80;9.00;;;11.60;99.90;;;;;;5085515;28;20240;-79
2021/05/09 03:44:43;;;;;;;10.10;8.47;;;11.60;99.90;;;;;;5078428;28;20233;-79
2021/05/09 03:47:09;;;;;;;15.17;9.03;;;11.50;99.90;;;;;;5065264;28;20202;-80
2021/05/09 03:49:35;;;;;;;15.60;9.37;;;11.60;99.90;;;;;;5065859;28;20201;-80
2021/05/09 03:52:03;;;;;;;14.57;8.93;;;11.60;99.90;;;;;;5065217;28;20213;-79
2021/05/09 03:54:29;;;;;;;10.07;7.90;;;11.60;99.90;;;;;;5065860;28;20198;-80
2021/05/09 03:56:55;;;;;;;11.07;8.50;;;11.60;99.90;;;;;;5065115;28;20212;-79
2021/05/09 03:59:22;;;;;;;13.40;8.10;;;11.60;99.90;;;;;;5065418;28;20205;-79
2021/05/09 04:01:48;;;;;;;9.77;7.67;;;11.60;99.90;;;;;;5065383;28;20281;-79
2021/05/09 04:04:14;;;;;;;12.77;8.80;;;11.70;99.90;;;;;;5065615;28;20214;-80
2021/05/09 04:06:41;;;;;;;12.03;7.80;;;11.70;99.90;;;;;;5066093;28;20201;-80
2021/05/09 04:09:08;;;;;;;10.57;7.97;;;11.70;99.90;;;;;;5065945;28;20401;-80
2021/05/09 04:11:35;;;;;;;10.20;8.13;;;11.70;99.90;;;;;;5065793;28;20209;-80
2021/05/09 04:14:01;;;;;;;11.07;7.83;;;11.70;99.90;;;;;;5064300;28;20204;-79
2021/05/09 04:16:27;;;;;;;13.50;8.23;;;11.70;99.90;;;;;;5064240;28;20247;-80
2021/05/09 04:18:54;;;;;;;11.30;8.20;;;11.70;99.90;;;;;;5065703;28;20229;-79
2021/05/09 04:21:20;;;;;;;11.67;8.10;;;11.80;99.90;;;;;;5065276;28;20213;-78
2021/05/09 04:23:46;;;;;;;9.80;6.83;;;11.80;99.90;;;;;;5065736;28;20225;-77
2021/05/09 04:26:13;;;;;;;11.20;7.60;;;11.80;99.90;;;;;;5066009;28;20197;-79
2021/05/09 04:28:39;;;;;;;12.27;8.00;;;11.80;99.90;;;;;;5065777;28;20197;-79
2021/05/09 04:31:06;;;;;;;12.73;7.80;;;11.90;99.90;;;;;;5065850;28;20660;-79
2021/05/09 04:33:32;;;;;;;10.30;7.10;;;11.80;99.90;;;;;;5065698;28;20494;-79
2021/05/09 04:35:58;;;;;;;11.87;7.70;;;11.90;99.90;;;;;;5064647;28;20209;-79
2021/05/09 04:38:24;;;;;;;8.90;7.27;;;11.90;99.90;;;;;;5066045;28;20201;-79
2021/05/09 04:40:51;;;;;;;9.87;6.77;;;11.90;99.90;;;;;;5065828;28;20201;-79
2021/05/09 04:43:19;;;;;;;10.03;6.73;;;11.90;99.90;;;;;;5064742;28;20251;-78
2021/05/09 04:45:46;;;;;;;7.23;6.30;;;11.90;99.90;;;;;;5065696;28;20255;-79
2021/05/09 04:48:12;;;;;;;11.30;7.67;;;11.90;99.90;;;;;;5065439;28;20634;-79
2021/05/09 04:50:39;;;;;;;9.00;6.73;;;12.00;99.90;;;;;;5081383;28;20256;-79
2021/05/09 04:53:23;;;;;;;8.70;7.00;;;12.00;99.90;;;;;;5085383;28;20274;-80
2021/05/09 04:55:50;;;;;;;10.27;6.90;;;12.10;99.90;;;;;;5085788;28;20200;-78
2021/05/09 04:58:16;;;;;;;9.17;7.13;;;12.10;99.90;;;;;;5080032;28;20287;-78
2021/05/09 05:00:43;;;;;;;9.37;6.33;;;12.10;99.90;;;;;;5065407;28;20201;-77
2021/05/09 05:03:09;;;;;;;9.77;6.83;;;12.10;99.90;;;;;;5063771;28;20290;-77
2021/05/09 05:05:36;;;;;;;13.33;7.07;;;12.20;99.90;;;;;;5064861;28;20217;-77
2021/05/09 05:08:02;;;;;;;14.37;7.10;;;12.30;99.90;;;;;;5065108;22;20241;-79
2021/05/09 05:10:29;;;;;;;10.23;6.83;;;12.30;99.90;;;;;;5044279;28;20244;-79
2021/05/09 05:12:55;;;;;;;8.53;6.57;;;12.40;99.90;;;;;;5027557;28;20206;-79
2021/05/09 05:15:21;;;;;;;10.43;7.30;;;12.40;99.90;;;;;;5024884;28;20646;-78
2021/05/09 05:17:49;;;;;;;6.93;6.23;;;12.50;99.90;;;;;;5024057;28;20199;-80
2021/05/09 05:20:16;;;;;;;9.70;6.60;;;12.50;99.90;;;;;;5026805;28;20899;-80
2021/05/09 05:22:42;;;;;;;10.13;6.77;;;12.60;99.90;;;;;;5044605;28;20198;-80
2021/05/09 05:25:09;;;;;;;8.67;6.67;;;12.70;99.90;;;;;;5035141;28;20202;-79
2021/05/09 05:27:36;;;;;;;8.50;6.03;;;12.70;99.90;;;;;;5024280;28;20261;-80
2021/05/09 05:30:03;;;;;;;7.53;6.33;;;12.70;99.90;;;;;;5024524;28;20201;-78
2021/05/09 05:32:29;;;;;;;9.07;6.67;;;12.80;99.90;;;;;;5024224;28;20198;-80
2021/05/09 05:34:56;;;;;;;11.07;6.70;;;12.90;99.90;;;;;;5024865;28;20213;-79
2021/05/09 05:37:22;;;;;;;8.43;6.60;;;12.90;99.90;;;;;;5024439;28;20206;-81
2021/05/09 05:39:48;;;;;;;7.93;5.83;;;12.90;99.90;;;;;;5025095;28;20264;-80
2021/05/09 05:42:15;;;;;;;8.47;5.50;;;13.00;99.90;;;;;;5025909;28;20202;-82
2021/05/09 05:44:41;;;;;;;9.27;6.37;;;13.10;99.90;;;;;;5024547;28;20219;-80
2021/05/09 05:47:07;;;;;;;8.40;6.20;;;13.20;99.90;;;;;;5042405;28;20210;-80
2021/05/09 05:49:34;;;;;;;9.10;5.57;;;13.20;99.90;;;;;;5044827;28;20195;-79
2021/05/09 05:52:01;;;;;;;9.40;5.97;;;13.20;99.90;;;;;;5045021;28;20201;-80
2021/05/09 05:54:28;;;;;;;6.83;5.97;;;13.20;99.90;;;;;;5044055;28;20218;-80
2021/05/09 05:56:54;;;;;;;7.33;5.77;;;13.40;99.90;;;;;;5037982;28;20470;-80
2021/05/09 05:59:20;;;;;;;6.70;6.00;;;13.50;99.90;;;;;;5024740;28;20218;-79
2021/05/09 06:01:47;;;;;;;7.57;5.77;;;13.80;99.90;;;;;;5024710;28;20199;-80
2021/05/09 06:04:13;;;;;;;6.97;6.00;;;14.00;99.90;;;;;;5024884;28;20709;-79
2021/05/09 06:06:39;;;;;;;5.77;5.13;;;14.10;99.90;;;;;;5024186;28;20436;-80
2021/05/09 06:09:07;;;;;;;6.43;4.93;;;14.30;99.90;;;;;;5040014;28;20248;-79
2021/05/09 06:11:33;;;;;;;7.63;5.47;;;14.60;99.90;;;;;;5045111;28;20606;-82
2021/05/09 06:13:59;;;;;;;6.87;4.87;;;14.80;99.90;;;;;;5043292;28;20871;-80
2021/05/09 06:16:26;;;;;;;8.23;5.33;;;15.10;99.90;;;;;;5044202;28;20861;-80
2021/05/09 06:18:52;;;;;;;6.07;4.60;;;15.30;99.90;;;;;;5044213;28;20237;-80
2021/05/09 06:21:18;;;;;;;7.70;5.00;;;15.30;99.90;;;;;;5043549;28;20206;-80
2021/05/09 06:23:44;;;;;;;7.70;5.10;;;15.40;99.90;;;;;;5044307;28;20221;-80
2021/05/09 06:26:12;;;;;;;7.73;5.13;;;15.60;99.90;;;;;;5043696;28;20210;-80
2021/05/09 06:28:38;;;;;;;6.68;4.85;;;15.70;99.90;;;;;;5042880;28;20205;-79
2021/05/09 06:31:04;;;;;;;10.47;5.27;;;15.60;99.90;;;;;;5057866;22;20241;-80
2021/05/09 06:33:30;;;;;;;5.07;4.67;;;15.70;99.90;;;;;;5063575;28;20874;-79
2021/05/09 06:35:57;;;;;;;5.93;4.55;;;15.80;99.90;;;;;;5046525;28;21028;-78
2021/05/09 06:38:23;;;;;;;5.45;4.78;;;15.80;99.90;;;;;;5046563;28;20237;-80
2021/05/09 06:40:49;;;;;;;6.10;4.70;;;16.00;99.90;;;;;;5062652;28;20206;-80
2021/05/09 06:43:17;;;;;;;5.22;4.45;;;16.30;99.90;;;;;;5063296;28;20649;-79
2021/05/09 06:45:45;;;;;;;5.57;3.92;;;16.70;99.90;;;;;;5063115;28;20240;-79
2021/05/09 06:48:12;;;;;;;5.65;4.28;;;17.30;99.90;;;;;;5062031;28;20209;-79
2021/05/09 06:50:38;;;;;;;7.75;4.68;;;17.50;99.90;;;;;;5062389;28;20201;-78
2021/05/09 06:53:06;;;;;;;7.05;4.45;;;17.70;99.90;;;;;;5062904;28;20523;-80
2021/05/09 06:55:34;;;;;;;7.03;4.32;;;18.00;99.90;;;;;;5061823;28;20301;-78
2021/05/09 06:58:01;;;;;;;5.40;3.83;;;18.10;99.90;;;;;;5061790;28;20216;-78
2021/05/09 07:00:28;;;;;;;6.63;4.38;;;18.30;99.90;;;;;;5062889;28;20248;-80
2021/05/09 07:02:55;;;;;;;6.00;4.80;;;18.50;99.90;;;;;;5061870;28;20266;-81
2021/05/09 07:05:22;;;;;;;5.85;4.05;;;18.60;99.90;;;;;;5067123;28;20212;-80
2021/05/09 07:07:49;;;;;;;6.82;4.38;;;18.60;99.90;;;;;;5069234;28;20204;-79
2021/05/09 07:10:16;;;;;;;5.45;4.32;;;18.50;99.90;;;;;;5068392;28;20204;-79
2021/05/09 07:12:42;;;;;;;5.80;4.60;;;18.70;99.90;;;;;;5068834;28;20478;-79
2021/05/09 07:15:10;;;;;;;6.18;4.10;;;19.00;99.90;;;;;;5068295;28;20492;-80
2021/05/09 07:17:37;;;;;;;5.00;3.78;;;19.40;99.90;;;;;;5068284;28;20259;-79
2021/05/09 07:20:04;;;;;;;5.07;4.53;;;19.80;99.90;;;;;;5069391;28;20220;-79
2021/05/09 07:22:33;;;;;;;5.72;4.50;;;19.40;99.90;;;;;;5069444;28;20209;-79
2021/05/09 07:24:59;;;;;;;6.40;4.32;;;19.50;99.90;;;;;;5068299;28;20229;-80
2021/05/09 07:27:26;;;;;;;5.40;4.22;;;19.60;99.90;;;;;;5068541;28;20612;-79
2021/05/09 07:29:52;;;;;;;4.97;4.15;;;19.60;99.90;;;;;;5068877;28;20197;-77
2021/05/09 07:32:18;;;;;;;7.90;4.78;;;19.70;99.90;;;;;;5068926;28;20236;-78
2021/05/09 07:35:56;;;;;;;6.00;4.40;;;19.70;99.90;;;;;;4995038;28;20505;-78
2021/05/09 07:38:23;;;;;;;7.28;4.30;;;19.50;99.90;;;;;;5067628;28;20201;-80
2021/05/09 07:40:50;;;;;;;10.20;4.00;;;19.40;99.90;;;;;;5068527;28;20209;-79
2021/05/09 07:43:16;;;;;;;4.00;3.55;;;19.60;99.90;;;;;;5068965;28;20279;-78
2021/05/09 07:45:43;;;;;;;5.55;3.95;;;20.00;99.90;;;;;;5068693;28;20286;-77
2021/05/09 07:48:10;;;;;;;5.72;4.05;;;20.00;99.90;;;;;;5068977;28;20621;-76
2021/05/09 07:50:37;;;;;;;5.70;4.63;;;19.80;99.90;;;;;;5069986;28;20197;-78
2021/05/09 07:53:04;;;;;;;5.47;3.83;;;19.40;99.90;;;;;;5033000;28;20204;-79
2021/05/09 07:55:32;;;;;;;5.30;3.92;;;19.10;99.90;;;;;;5068928;28;20189;-82
2021/05/09 07:57:59;;;;;;;5.82;4.18;;;18.60;99.90;;;;;;5089515;22;20311;-78
2021/05/09 08:00:25;;;;;;;5.95;4.40;;;18.40;99.90;;;;;;5088741;28;20201;-81
2021/05/09 08:02:52;;;;;;;6.57;4.80;;;18.00;99.90;;;;;;5088294;28;20196;-78
2021/05/09 08:05:22;;;;;;;6.32;5.10;;;17.60;99.90;;;;;;5070432;28;20205;-76
2021/05/09 08:07:50;;;;;;;5.53;4.40;;;17.30;99.90;;;;;;5089233;28;20616;-76
2021/05/09 08:10:17;;;;;;;7.53;5.20;;;17.10;99.90;;;;;;5079434;28;20216;-79
2021/05/09 08:12:44;;;;;;;6.40;4.53;;;16.90;99.90;;;;;;5068364;28;20840;-80
2021/05/09 08:15:12;;;;;;;9.32;5.15;;;16.80;99.90;;;;;;5075436;22;20295;-79
2021/05/09 08:17:39;;;;;;;10.45;5.40;;;16.70;99.90;;;;;;5064404;28;20290;-81
2021/05/09 08:20:07;;;;;;;10.23;6.50;;;16.60;99.90;;;;;;5048909;28;20266;-78
2021/05/09 08:22:33;;;;;;;7.57;6.30;;;16.50;99.90;;;;;;5045508;28;20210;-76
2021/05/09 08:25:00;;;;;;;9.18;7.07;;;16.40;99.90;;;;;;5045091;28;20236;-78
2021/05/09 08:27:29;;;;;;;9.30;6.35;;;16.30;99.90;;;;;;5043955;28;20209;-77
2021/05/09 08:29:57;;;;;;;10.73;6.10;;;16.20;99.90;;;;;;5044276;28;20198;-76
2021/05/09 08:32:23;;;;;;;9.77;6.20;;;16.20;99.90;;;;;;5044405;28;20666;-77
2021/05/09 08:34:50;;;;;;;11.10;5.85;;;16.20;99.90;;;;;;5044102;28;20208;-76
2021/05/09 08:37:17;;;;;;;9.32;5.47;;;16.30;99.90;;;;;;5044396;28;20206;-75
2021/05/09 08:39:43;;;;;;;9.90;6.68;;;16.50;99.90;;;;;;5044171;28;20264;-78
2021/05/09 08:42:15;;;;;;;10.68;6.35;;;16.70;99.90;;;;;;5043479;28;20255;-76
2021/05/09 08:44:41;;;;;;;10.15;6.78;;;16.80;99.90;;;;;;5045038;28;20221;-78
2021/05/09 08:47:09;;;;;;;11.32;7.97;;;17.20;99.90;;;;;;5043790;28;20213;-75
2021/05/09 08:49:40;;;;;;;9.32;7.50;;;17.60;99.90;;;;;;5044376;28;20233;-75
2021/05/09 08:52:08;;;;;;;9.55;7.20;;;18.10;99.90;;;;;;5043452;28;20316;-76
2021/05/09 08:54:34;;;;;;;7.10;6.15;;;18.50;99.90;;;;;;5043463;28;20300;-76
2021/05/09 08:57:02;;;;;;;7.40;6.53;;;18.80;99.90;;;;;;5043879;28;20210;-76
2021/05/09 08:59:28;;;;;;;7.90;5.63;;;19.20;99.90;;;;;;5057373;28;20655;-77
2021/05/09 09:01:56;;;;;;;6.75;6.15;;;19.50;99.90;;;;;;5061161;28;20209;-77
2021/05/09 09:04:23;;;;;;;5.88;5.10;;;19.70;99.90;;;;;;5063921;28;20251;-80
2021/05/09 09:06:52;;;;;;;8.35;5.28;;;19.70;99.90;;;;;;5064154;28;20198;-77
2021/05/09 09:09:20;;;;;;;6.47;5.25;;;19.70;99.90;;;;;;5054479;28;20263;-78
2021/05/09 09:11:50;;;;;;;6.60;5.18;;;19.60;99.90;;;;;;5044068;28;20950;-76
2021/05/09 09:14:17;;;;;;;5.03;4.55;;;19.50;99.90;;;;;;5043987;28;20380;-77
2021/05/09 09:16:43;;;;;;;5.78;5.20;;;19.60;99.90;;;;;;5043560;28;20625;-78
2021/05/09 09:19:11;;;;;;;6.32;4.65;;;19.40;99.90;;;;;;5044161;28;20202;-76
2021/05/09 09:21:39;;;;;;;4.82;4.35;;;19.30;99.90;;;;;;5043506;28;20209;-81
2021/05/09 09:24:06;;;;;;;6.18;4.70;;;19.40;99.90;;;;;;5043332;28;20558;-80
2021/05/09 09:26:36;;;;;;;4.65;3.85;;;19.40;99.90;;;;;;5043727;28;20210;-79
2021/05/09 09:29:18;;;;;;;6.20;4.90;;;19.50;99.90;;;;;;5043685;28;20256;-80
2021/05/09 09:31:45;;;;;;;4.95;3.88;;;19.80;99.90;;;;;;5043689;28;20327;-78
2021/05/09 09:34:13;;;;;;;8.88;4.60;;;19.90;99.90;;;;;;5043030;28;20217;-80
2021/05/09 09:36:40;;;;;;;7.40;4.43;;;20.20;99.90;;;;;;5043223;28;20215;-78
2021/05/09 09:39:08;;;;;;;4.47;4.07;;;20.70;99.90;;;;;;5043432;28;20771;-79
2021/05/09 09:41:35;;;;;;;4.32;3.58;;;21.10;99.90;;;;;;5043736;28;20202;-79
2021/05/09 09:44:04;;;;;;;4.65;3.13;;;21.30;99.90;;;;;;5043444;28;20222;-79
2021/05/09 09:46:32;;;;;;;4.30;3.90;;;21.10;99.90;;;;;;5043698;28;20726;-79
2021/05/09 09:48:58;;;;;;;8.00;4.93;;;21.00;99.90;;;;;;5043758;28;20198;-81
2021/05/09 09:51:26;;;;;;;5.00;4.47;;;20.80;99.90;;;;;;5044201;28;20569;-81
2021/05/09 09:53:56;;;;;;;7.90;5.07;;;20.40;99.90;;;;;;5044787;28;20213;-81
2021/05/09 09:56:24;;;;;;;5.70;5.07;;;20.30;99.90;;;;;;5043915;28;20210;-79
2021/05/09 09:58:53;;;;;;;7.28;5.63;;;20.50;99.90;;;;;;5042534;28;20676;-78
2021/05/09 10:01:23;;;;;;;5.50;5.00;;;20.80;99.90;;;;;;5046486;28;20259;-80
2021/05/09 10:03:51;;;;;;;6.40;5.45;;;21.10;99.90;;;;;;5043374;28;20229;-80
2021/05/09 10:06:17;;;;;;;6.38;5.38;;;21.40;99.90;;;;;;5053992;28;20307;-81
2021/05/09 10:08:44;;;;;;;6.47;5.57;;;21.80;99.90;;;;;;5048781;28;20205;-77
2021/05/09 10:11:12;;;;;;;6.35;5.32;;;22.20;99.90;;;;;;5042913;28;20206;-78
2021/05/09 10:13:38;;;;;;;5.82;5.22;;;22.60;99.90;;;;;;5042538;28;20272;-80
2021/05/09 10:16:05;;;;;;;5.72;5.13;;;23.00;99.90;;;;;;5042470;28;20252;-78
2021/05/09 10:18:33;;;;;;;6.22;4.80;;;23.40;99.90;;;;;;5042322;28;20198;-80
2021/05/09 10:21:00;;;;;;;5.80;4.70;;;23.40;99.90;;;;;;5041675;28;20259;-78
2021/05/09 10:23:26;;;;;;;5.25;3.90;;;23.40;99.90;;;;;;5042742;28;20225;-80
2021/05/09 10:25:54;;;;;;;3.95;3.58;;;23.40;99.90;;;;;;5042129;28;20198;-78
2021/05/09 10:28:23;;;;;;;6.13;3.80;;;23.40;99.90;;;;;;5042517;28;20206;-79
2021/05/09 10:30:51;;;;;;;4.18;3.78;;;23.20;99.90;;;;;;5042505;28;20215;-78
2021/05/09 10:33:43;;;;;;;4.18;3.72;;;23.20;99.90;;;;;;5042987;28;20206;-79
2021/05/09 10:36:11;;;;;;;4.78;3.83;;;23.20;99.90;;;;;;5041534;28;20218;-79
2021/05/09 10:39:06;;;;;;;4.40;4.00;;;23.00;99.90;;;;;;5041418;28;20244;-76
2021/05/09 10:41:32;;;;;;;5.03;4.13;;;22.90;99.90;;;;;;5041136;28;20213;-77
2021/05/09 10:43:59;;;;;;;5.20;3.47;;;22.80;99.90;;;;;;5042100;28;20444;-81
2021/05/09 10:46:46;;;;;;;4.07;3.67;;;23.00;99.90;;;;;;5042204;28;20209;-79
2021/05/09 10:49:12;;;;;;;5.60;3.88;;;23.20;99.90;;;;;;5041859;28;20371;-79
2021/05/09 10:51:38;;;;;;;3.88;3.58;;;23.50;99.90;;;;;;5041850;28;20205;-77
2021/05/09 10:54:25;;;;;;;6.30;4.47;;;23.50;99.90;;;;;;5041018;28;20194;-78
2021/05/09 10:56:53;;;;;;;5.85;4.20;;;23.50;99.90;;;;;;5041062;28;20201;-81
2021/05/09 10:59:21;;;;;;;5.85;4.25;;;23.70;99.90;;;;;;5042202;28;20209;-79
2021/05/09 11:02:11;;;;;;;4.78;4.38;;;23.70;99.90;;;;;;5050452;22;20237;-80
2021/05/09 11:04:48;;;;;;;4.70;4.10;;;23.40;99.90;;;;;;5042049;28;20218;-79
2021/05/09 11:07:42;;;;;;;4.80;4.38;;;23.30;99.90;;;;;;5042456;28;20364;-79
2021/05/09 11:10:39;;;;;;;5.50;4.20;;;23.70;99.90;;;;;;5040994;28;20296;-77
2021/05/09 11:13:06;;;;;;;5.97;4.13;;;24.00;99.90;;;;;;5041656;28;20251;-80
2021/05/09 11:15:34;;;;;;;4.88;4.20;;;24.20;99.90;;;;;;5040547;28;20266;-79
2021/05/09 11:18:00;;;;;;;5.15;4.30;;;24.20;99.90;;;;;;5041073;28;20204;-79
2021/05/09 11:20:26;;;;;;;7.05;4.32;;;24.30;99.90;;;;;;5041086;28;20629;-80
2021/05/09 11:22:57;;;;;;;5.88;4.15;;;24.40;99.90;;;;;;5041559;28;20202;-78
2021/05/09 11:25:30;;;;;;;4.72;4.25;;;24.20;99.90;;;;;;5041691;28;20233;-78
2021/05/09 11:27:57;;;;;;;5.53;4.32;;;23.70;99.90;;;;;;5041654;28;20281;-79
2021/05/09 11:30:34;;;;;;;6.05;4.22;;;23.20;99.90;;;;;;5042214;28;20201;-79
2021/05/09 11:33:00;;;;;;;4.47;3.63;;;22.80;99.90;;;;;;5041793;28;20220;-79
2021/05/09 11:35:36;;;;;;;3.63;3.30;;;22.60;99.90;;;;;;5042226;28;20198;-79
2021/05/09 11:38:03;;;;;;;4.78;3.75;;;22.50;99.90;;;;;;5041001;28;20205;-78
2021/05/09 11:40:29;;;;;;;4.47;3.65;;;22.40;99.90;;;;;;5041893;28;20357;-77
2021/05/09 11:42:55;;;;;;;4.57;3.65;;;22.30;99.90;;;;;;5041573;28;20208;-77
2021/05/09 11:45:25;;;;;;;4.70;3.38;;;22.20;99.90;;;;;;5041166;28;20237;-77
2021/05/09 11:47:52;;;;;;;7.07;4.22;;;22.00;99.90;;;;;;5041559;28;20202;-80
2021/05/09 11:50:19;;;;;;;4.68;3.45;;;21.70;99.90;;;;;;5041115;28;20210;-80
2021/05/09 11:52:45;;;;;;;5.30;3.63;;;21.50;99.90;;;;;;5044837;28;20602;-78
2021/05/09 11:55:14;;;;;;;5.57;3.60;;;21.50;99.90;;;;;;5044970;28;20210;-77
2021/05/09 11:57:41;;;;;;;5.00;4.03;;;21.80;99.90;;;;;;5044084;28;20284;-76
2021/05/09 12:00:09;;;;;;;6.88;4.00;;;22.20;99.90;;;;;;5044830;28;20194;-79
2021/05/09 12:02:37;;;;;;;4.53;3.90;;;22.60;99.90;;;;;;5045019;28;20307;-77
2021/05/09 12:05:10;;;;;;;3.83;3.42;;;22.90;99.90;;;;;;5045123;28;20258;-76
2021/05/09 12:07:43;;;;;;;6.70;3.70;;;23.00;99.90;;;;;;5044965;28;20866;-76
2021/05/09 12:10:12;;;;;;;4.60;3.50;;;22.90;99.90;;;;;;5045054;28;20212;-77
2021/05/09 12:12:41;;;;;;;4.32;3.60;;;22.70;99.90;;;;;;5043731;28;20206;-75
2021/05/09 12:15:13;;;;;;;4.45;4.05;;;22.50;99.90;;;;;;5045130;28;20481;-77
2021/05/09 12:17:47;;;;;;;6.10;3.80;;;22.30;99.90;;;;;;5044767;28;20263;-77
2021/05/09 12:20:26;;;;;;;7.00;4.20;;;22.10;99.90;;;;;;5044594;28;20213;-76
2021/05/09 12:22:53;;;;;;;7.68;4.20;;;21.90;99.90;;;;;;5045133;28;20202;-75
2021/05/09 12:25:28;;;;;;;9.55;5.18;;;21.80;99.90;;;;;;5044255;28;20590;-78
2021/05/09 12:27:55;;;;;;;7.82;4.68;;;21.80;99.90;;;;;;5044501;28;20280;-78
2021/05/09 12:30:21;;;;;;;7.03;4.90;;;21.70;99.90;;;;;;5044645;28;20210;-79
2021/05/09 12:32:47;;;;;;;6.25;5.30;;;21.50;99.90;;;;;;5044210;28;20205;-77
2021/05/09 12:35:15;;;;;;;6.80;5.10;;;21.50;99.90;;;;;;5045486;28;20205;-80
2021/05/09 12:38:02;;;;;;;5.50;4.55;;;21.60;99.90;;;;;;5044779;28;20845;-78
2021/05/09 12:40:34;;;;;;;5.40;4.85;;;21.80;99.90;;;;;;5044240;28;20288;-79
2021/05/09 12:43:03;;;;;;;5.50;4.88;;;21.90;99.90;;;;;;5044058;28;20284;-79
2021/05/09 12:45:36;;;;;;;5.43;4.20;;;22.20;99.90;;;;;;5044141;28;20225;-78